Time;durP1;ratioP1;P1;durP2;ratioP2;P2;SDS_P1;SDS_P2;PMS_P1;PMS_P2;Temp;Humidity;BMP_temperature;BMP_pressure;BME280_temperature;BME280_humidity;BME280_pressure;Samples;Min_cycle;Max_cycle;Signal;HPM_P1;HPM_P2
2023/05/31 00:02:00;;;;;;;4.07;2.63;;;;;;;19.58;62.18;98800.81;5033777;28;20037;-73
2023/05/31 00:04:25;;;;;;;6.00;2.65;;;;;;;19.54;62.26;98788.91;5051528;28;20409;-74
2023/05/31 00:06:51;;;;;;;7.13;2.60;;;;;;;19.60;62.24;98796.16;5050564;28;20067;-71
2023/05/31 00:09:16;;;;;;;4.65;2.60;;;;;;;19.61;62.27;98800.47;5051548;28;20427;-73
2023/05/31 00:11:42;;;;;;;2.70;2.40;;;;;;;19.62;62.30;98799.44;5052741;28;20029;-71
2023/05/31 00:14:07;;;;;;;3.38;2.50;;;;;;;19.62;62.27;98804.75;5054284;28;20491;-73
2023/05/31 00:16:33;;;;;;;5.85;2.50;;;;;;;19.62;62.34;98806.59;5037321;28;20128;-74
2023/05/31 00:18:58;;;;;;;4.90;2.72;;;;;;;19.61;62.35;98797.81;5054006;28;20025;-73
2023/05/31 00:21:24;;;;;;;3.55;2.53;;;;;;;19.59;62.26;98794.50;5054257;28;20060;-74
2023/05/31 00:23:49;;;;;;;3.28;2.33;;;;;;;19.62;62.32;98801.28;5037314;28;20037;-74
2023/05/31 00:26:15;;;;;;;4.70;2.75;;;;;;;19.59;62.34;98791.84;5054802;28;20048;-74
2023/05/31 00:28:40;;;;;;;3.30;2.47;;;;;;;19.60;62.66;98792.69;5054183;28;20028;-72
2023/05/31 00:31:06;;;;;;;3.20;2.28;;;;;;;19.61;62.43;98792.53;5037198;28;20041;-72
2023/05/31 00:33:31;;;;;;;4.85;2.50;;;;;;;19.58;62.42;98787.56;5054094;28;20029;-72
2023/05/31 00:35:57;;;;;;;3.65;2.92;;;;;;;19.60;62.54;98790.06;5053772;28;20515;-72
2023/05/31 00:38:22;;;;;;;4.13;2.63;;;;;;;19.59;62.50;98791.03;5054771;28;20025;-73
2023/05/31 00:40:48;;;;;;;4.30;2.28;;;;;;;19.55;62.45;98782.63;5037293;28;20104;-73
2023/05/31 00:43:13;;;;;;;4.70;2.67;;;;;;;19.55;62.54;98781.81;5036828;28;20037;-73
2023/05/31 00:45:39;;;;;;;4.07;2.22;;;;;;;19.55;62.49;98787.09;5036935;28;20043;-72
2023/05/31 00:48:05;;;;;;;7.47;2.95;;;;;;;19.53;62.57;98785.44;5053507;28;20025;-72
2023/05/31 00:50:30;;;;;;;5.03;3.25;;;;;;;19.53;62.42;98793.38;5020118;28;20094;-72
2023/05/31 00:52:56;;;;;;;9.75;4.47;;;;;;;19.48;62.43;98789.59;5036490;28;20411;-72
2023/05/31 00:55:22;;;;;;;7.55;4.70;;;;;;;19.47;62.45;98788.78;5036842;28;20035;-73
2023/05/31 00:57:47;;;;;;;8.25;5.45;;;;;;;19.47;62.40;98785.31;5053547;28;20469;-73
2023/05/31 01:00:14;;;;;;;11.23;5.78;;;;;;;19.47;62.45;98795.91;5053061;28;20029;-73
2023/05/31 01:02:41;;;;;;;8.20;5.25;;;;;;;19.44;62.85;98785.66;5036856;28;20381;-73
2023/05/31 01:05:07;;;;;;;11.45;5.00;;;;;;;19.43;62.44;98791.94;5054405;28;20055;-72
2023/05/31 01:07:33;;;;;;;8.07;4.65;;;;;;;19.42;62.53;98803.53;5053083;28;20025;-73
2023/05/31 01:09:59;;;;;;;5.65;4.50;;;;;;;19.41;62.60;98791.31;5036227;28;20108;-73
2023/05/31 01:12:43;;;;;;;6.40;3.80;;;;;;;19.39;62.40;98791.47;5036320;28;20028;-72
2023/05/31 01:15:29;;;;;;;5.88;3.95;;;;;;;19.36;62.58;98785.72;5054021;28;20036;-72
2023/05/31 01:17:59;;;;;;;5.90;3.60;;;;;;;19.36;62.49;98785.72;5052772;28;20033;-73
2023/05/31 01:20:25;;;;;;;5.05;3.45;;;;;;;19.32;62.66;98785.22;5054494;28;20146;-73
2023/05/31 01:23:09;;;;;;;4.82;3.22;;;;;;;19.31;62.63;98778.28;5035481;28;20039;-72
2023/05/31 01:26:19;;;;;;;5.75;3.38;;;;;;;19.28;62.62;98787.38;5053661;28;20029;-73
2023/05/31 01:28:49;;;;;;;5.68;3.17;;;;;;;19.26;62.72;98788.53;5054597;28;20461;-73
2023/05/31 01:31:17;;;;;;;7.00;2.78;;;;;;;19.24;62.75;98783.41;5034589;28;20017;-73
2023/05/31 01:33:42;;;;;;;5.00;3.22;;;;;;;19.24;62.62;98783.41;5036120;28;20041;-72
2023/05/31 01:36:08;;;;;;;5.25;2.70;;;;;;;19.22;62.69;98774.84;5034705;28;20041;-72
2023/05/31 01:38:33;;;;;;;4.85;3.10;;;;;;;19.22;62.65;98774.84;5035928;28;20041;-72
2023/05/31 01:40:59;;;;;;;5.15;3.20;;;;;;;19.20;62.53;98770.69;5053603;28;20025;-72
2023/05/31 01:43:25;;;;;;;4.60;2.90;;;;;;;19.21;62.45;98781.13;5035818;28;20033;-72
2023/05/31 01:45:51;;;;;;;5.43;2.80;;;;;;;19.17;62.54;98774.53;5036087;28;20484;-72
2023/05/31 01:48:17;;;;;;;4.55;2.42;;;;;;;19.17;62.66;98780.63;5052390;28;20040;-72
2023/05/31 01:50:42;;;;;;;4.57;2.80;;;;;;;19.18;62.58;98786.75;5035665;28;20044;-72
2023/05/31 01:53:07;;;;;;;3.70;2.80;;;;;;;19.11;62.50;98783.16;5052240;28;20488;-72
2023/05/31 01:55:33;;;;;;;3.78;2.67;;;;;;;19.12;62.58;98779.53;5018783;28;20032;-72
2023/05/31 01:57:58;;;;;;;4.88;2.72;;;;;;;19.11;62.50;98777.84;5035816;28;20029;-72
2023/05/31 02:00:24;;;;;;;4.80;2.70;;;;;;;19.07;62.63;98784.47;5035495;28;20060;-72
2023/05/31 02:02:50;;;;;;;6.28;2.70;;;;;;;19.08;62.51;98791.44;5035706;28;20399;-72
2023/05/31 02:05:16;;;;;;;4.13;2.60;;;;;;;19.04;62.56;98784.81;5018654;28;20041;-72
2023/05/31 02:07:41;;;;;;;4.22;2.60;;;;;;;19.05;62.55;98786.47;5053147;28;20037;-73
2023/05/31 02:10:07;;;;;;;6.53;2.40;;;;;;;19.03;62.41;98785.84;5053023;28;20163;-73
2023/05/31 02:12:33;;;;;;;5.65;2.80;;;;;;;19.01;62.72;98786.00;5035232;28;20036;-73
2023/05/31 02:14:58;;;;;;;3.28;2.50;;;;;;;19.00;62.57;98794.09;5052217;28;20033;-73
2023/05/31 02:17:24;;;;;;;3.10;2.50;;;;;;;18.96;62.53;98793.59;5051452;28;20123;-72
2023/05/31 02:19:53;;;;;;;5.70;2.65;;;;;;;18.99;62.50;98801.19;5035202;28;20087;-72
2023/05/31 02:22:19;;;;;;;5.57;2.72;;;;;;;19.00;62.45;98804.69;5051693;28;20028;-73
2023/05/31 02:24:45;;;;;;;6.93;2.80;;;;;;;18.98;62.38;98796.91;5051577;28;20025;-73
2023/05/31 02:27:11;;;;;;;8.02;3.08;;;;;;;18.95;62.53;98799.91;5053048;28;20084;-73
2023/05/31 02:29:37;;;;;;;5.22;2.75;;;;;;;18.95;62.43;98803.34;5052790;28;20029;-73
2023/05/31 02:32:02;;;;;;;4.03;2.80;;;;;;;18.96;62.25;98809.47;5034419;28;20033;-73
2023/05/31 02:34:28;;;;;;;4.05;2.70;;;;;;;18.97;62.24;98813.78;5052467;28;20028;-73
2023/05/31 02:36:53;;;;;;;5.53;3.08;;;;;;;18.98;62.23;98812.78;5051389;28;20033;-73
2023/05/31 02:39:19;;;;;;;5.03;3.00;;;;;;;18.94;62.13;98809.66;5051144;28;20025;-73
2023/05/31 02:41:44;;;;;;;3.75;2.70;;;;;;;18.98;62.18;98812.78;5034841;28;20024;-73
2023/05/31 02:44:10;;;;;;;5.18;2.63;;;;;;;18.96;62.17;98817.41;5051147;28;20037;-73
2023/05/31 02:46:36;;;;;;;7.18;2.60;;;;;;;18.98;62.29;98824.19;5034626;28;20029;-73
2023/05/31 02:49:02;;;;;;;9.57;2.85;;;;;;;19.01;62.19;98823.03;5034594;28;20523;-73
2023/05/31 02:51:27;;;;;;;4.57;2.65;;;;;;;19.02;62.18;98824.66;5034520;28;20144;-73
2023/05/31 02:53:53;;;;;;;6.47;3.00;;;;;;;19.04;62.20;98837.72;5052300;28;20480;-73
2023/05/31 02:56:19;;;;;;;3.80;2.42;;;;;;;19.05;62.08;98836.75;5034304;28;20099;-73
2023/05/31 02:58:45;;;;;;;10.23;3.00;;;;;;;19.16;61.85;98836.38;5051230;28;20054;-73
2023/05/31 03:01:11;;;;;;;8.13;3.05;;;;;;;19.32;61.29;98846.94;5052222;28;20033;-73
2023/05/31 03:03:36;;;;;;;7.35;2.50;;;;;;;19.53;60.68;98838.41;5034507;28;20048;-73
2023/05/31 03:06:04;;;;;;;5.35;2.67;;;;;;;19.71;60.16;98845.28;5052215;28;20041;-73
2023/05/31 03:08:30;;;;;;;4.53;2.60;;;;;;;19.93;59.36;98848.16;5034876;28;20624;-74
2023/05/31 03:10:55;;;;;;;3.40;2.60;;;;;;;20.21;58.80;98853.78;5050891;28;20025;-73
2023/05/31 03:13:21;;;;;;;4.75;2.33;;;;;;;20.45;58.21;98854.59;5034073;28;20037;-74
2023/05/31 03:15:47;;;;;;;5.47;2.72;;;;;;;20.61;57.32;98847.31;5034442;28;20068;-73
2023/05/31 03:18:12;;;;;;;4.78;2.50;;;;;;;20.90;56.62;98848.41;5034242;28;20050;-73
2023/05/31 03:20:38;;;;;;;8.10;2.92;;;;;;;21.23;55.85;98857.88;5052109;28;20033;-73
2023/05/31 03:23:03;;;;;;;5.40;2.72;;;;;;;21.56;55.18;98866.31;5050541;28;20056;-74
2023/05/31 03:25:29;;;;;;;4.30;2.40;;;;;;;21.84;54.77;98863.81;5017588;28;20067;-74
2023/05/31 03:27:55;;;;;;;6.32;2.75;;;;;;;22.07;53.76;98872.63;5042647;28;20049;-71
2023/05/31 03:30:21;;;;;;;6.70;2.90;;;;;;;21.83;54.39;98869.31;5030884;28;20040;-74
2023/05/31 03:32:46;;;;;;;6.05;2.83;;;;;;;21.66;55.05;98869.53;5039326;28;20037;-69
2023/05/31 03:35:12;;;;;;;5.43;3.30;;;;;;;21.55;55.09;98877.13;5031670;28;20029;-70
2023/05/31 03:37:37;;;;;;;5.28;3.00;;;;;;;21.64;56.85;98873.38;5013898;28;20040;-69
2023/05/31 03:40:04;;;;;;;5.72;2.67;;;;;;;22.02;55.96;98871.34;5015533;28;20059;-71
2023/05/31 03:42:31;;;;;;;4.97;2.90;;;;;;;22.45;54.44;98864.47;5014023;28;20025;-70
2023/05/31 03:44:57;;;;;;;9.73;2.92;;;;;;;23.11;53.13;98858.84;5051917;28;20109;-70
2023/05/31 03:47:22;;;;;;;5.72;2.90;;;;;;;23.74;51.48;98872.09;5034515;28;20029;-70
2023/05/31 03:49:47;;;;;;;6.93;2.75;;;;;;;24.27;49.75;98857.28;5035490;28;20084;-69
2023/05/31 03:52:13;;;;;;;7.40;2.25;;;;;;;25.03;51.37;98870.28;5049923;28;20472;-70
2023/05/31 03:54:39;;;;;;;4.68;2.30;;;;;;;25.56;48.33;98871.19;5037410;28;20041;-69
2023/05/31 03:57:05;;;;;;;4.45;2.72;;;;;;;26.06;46.84;98871.41;5037580;28;20035;-69
2023/05/31 03:59:31;;;;;;;5.63;2.40;;;;;;;26.54;45.35;98870.06;5055404;28;20449;-71
2023/05/31 04:01:56;;;;;;;7.50;2.33;;;;;;;27.03;44.20;98871.09;5048103;28;20038;-75
2023/05/31 04:04:22;;;;;;;4.97;2.60;;;;;;;27.61;42.88;98867.22;5034034;28;20087;-72
2023/05/31 04:06:47;;;;;;;5.40;2.42;;;;;;;28.20;42.51;98864.00;5035349;28;20496;-68
2023/05/31 04:09:13;;;;;;;5.00;2.20;;;;;;;28.85;41.39;98863.19;5035020;28;20473;-70
2023/05/31 04:11:38;;;;;;;6.47;2.42;;;;;;;29.47;40.16;98866.44;5017718;28;20033;-71
2023/05/31 04:14:04;;;;;;;13.27;2.38;;;;;;;30.01;38.74;98869.66;5017071;28;20060;-72
2023/05/31 04:16:29;;;;;;;7.00;2.28;;;;;;;30.79;36.90;98866.41;5015821;28;20132;-70
2023/05/31 04:18:55;;;;;;;6.97;2.38;;;;;;;31.36;35.89;98862.69;5019219;28;20041;-77
2023/05/31 04:21:20;;;;;;;9.52;2.60;;;;;;;31.89;34.89;98869.25;5034393;28;20033;-69
2023/05/31 04:23:46;;;;;;;9.73;2.05;;;;;;;32.38;33.62;98857.59;5033992;28;20028;-70
2023/05/31 04:26:16;;;;;;;6.75;2.28;;;;;;;32.85;32.73;98866.09;5034409;28;20522;-69
2023/05/31 04:28:42;;;;;;;7.03;2.25;;;;;;;33.40;32.11;98867.50;5033821;28;20065;-68
2023/05/31 04:31:08;;;;;;;8.00;2.20;;;;;;;33.90;30.48;98870.66;5033554;28;20041;-68
2023/05/31 04:33:35;;;;;;;9.45;2.30;;;;;;;34.33;30.17;98868.63;5033661;28;20029;-68
2023/05/31 04:36:03;;;;;;;3.83;1.80;;;;;;;34.60;29.75;98875.63;5034301;28;20033;-68
2023/05/31 04:38:30;;;;;;;5.40;1.83;;;;;;;35.01;29.04;98872.91;5033388;28;20119;-73
2023/05/31 04:40:59;;;;;;;6.85;1.98;;;;;;;35.45;28.17;98880.38;5033426;28;20204;-73
2023/05/31 04:43:25;;;;;;;5.30;2.00;;;;;;;35.78;27.53;98871.88;5033528;28;20481;-73
2023/05/31 04:45:54;;;;;;;5.38;2.05;;;;;;;36.21;27.28;98872.94;5032970;28;20049;-72
2023/05/31 04:48:20;;;;;;;5.95;3.60;;;;;;;36.51;26.42;98873.81;5033338;28;20120;-72
2023/05/31 04:50:46;;;;;;;8.10;4.25;;;;;;;36.80;26.46;98870.34;5033127;28;20045;-73
2023/05/31 04:53:12;;;;;;;5.10;4.10;;;;;;;37.24;25.67;98871.25;5034772;28;20033;-73
2023/05/31 04:55:37;;;;;;;8.52;4.03;;;;;;;37.70;25.17;98878.06;5034071;28;20021;-72
2023/05/31 04:58:03;;;;;;;8.02;3.20;;;;;;;38.12;24.24;98888.06;5033198;28;20033;-70
2023/05/31 05:00:28;;;;;;;6.70;3.08;;;;;;;38.36;24.06;98876.28;5033252;28;20032;-70
2023/05/31 05:02:54;;;;;;;4.68;2.70;;;;;;;38.75;23.79;98888.75;5046379;28;20041;-70
2023/05/31 05:05:20;;;;;;;5.07;2.70;;;;;;;39.19;23.33;98889.31;5052870;28;20025;-71
2023/05/31 05:07:45;;;;;;;7.38;3.03;;;;;;;39.56;22.90;98885.59;5052469;28;20045;-71
2023/05/31 05:10:11;;;;;;;6.85;2.63;;;;;;;39.95;22.58;98891.59;5054109;28;20178;-71
2023/05/31 05:12:36;;;;;;;5.22;2.47;;;;;;;40.29;21.87;98884.81;5053983;28;20033;-70
2023/05/31 05:15:02;;;;;;;2.88;2.08;;;;;;;40.56;22.23;98894.03;5054046;28;20074;-70
2023/05/31 05:17:27;;;;;;;7.47;2.13;;;;;;;40.81;21.84;98882.41;5052732;28;20107;-72
2023/05/31 05:19:53;;;;;;;4.65;1.98;;;;;;;41.14;21.22;98884.84;5054226;28;20029;-70
2023/05/31 05:22:18;;;;;;;2.25;1.70;;;;;;;41.42;21.22;98892.84;5053869;28;20029;-71
2023/05/31 05:24:44;;;;;;;4.63;1.90;;;;;;;41.66;20.53;98891.63;5035571;28;20041;-72
2023/05/31 05:27:09;;;;;;;6.10;1.90;;;;;;;41.73;20.79;98891.97;5052027;28;20144;-73
2023/05/31 05:29:35;;;;;;;5.93;3.07;;;;;;;42.00;20.24;98893.56;5053785;28;20036;-72
2023/05/31 05:32:00;;;;;;;5.33;2.80;;;;;;;42.32;19.65;98890.69;5053795;28;20032;-73
2023/05/31 05:34:26;;;;;;;6.93;2.73;;;;;;;42.45;19.59;98896.00;5053429;28;20040;-73
2023/05/31 05:36:52;;;;;;;5.87;3.63;;;;;;;42.61;19.58;98896.31;5053460;28;20473;-72
2023/05/31 05:39:18;;;;;;;4.53;3.47;;;;;;;42.81;19.23;98896.72;5053469;28;20029;-73
2023/05/31 05:41:43;;;;;;;6.30;3.00;;;;;;;42.98;19.12;98904.13;5052312;28;20396;-73
2023/05/31 05:44:09;;;;;;;6.03;3.10;;;;;;;43.10;19.12;98901.50;5053361;28;20492;-74
2023/05/31 05:46:35;;;;;;;7.93;2.90;;;;;;;43.18;18.80;98900.66;5053389;28;20044;-73
2023/05/31 05:49:00;;;;;;;6.27;2.90;;;;;;;43.36;19.20;98911.56;5035874;28;20094;-73
2023/05/31 05:51:26;;;;;;;12.93;3.00;;;;;;;43.44;18.95;98913.47;5053532;28;20029;-73
2023/05/31 05:53:52;;;;;;;5.68;3.28;;;;;;;43.48;18.95;98908.94;5053551;28;20086;-73
2023/05/31 05:56:20;;;;;;;7.50;2.97;;;;;;;43.54;18.71;98913.09;5053109;28;20438;-73
2023/05/31 05:58:46;;;;;;;5.15;2.50;;;;;;;43.57;19.17;98917.13;5052061;28;20029;-74
2023/05/31 06:01:18;;;;;;;5.83;2.37;;;;;;;43.58;19.05;98912.44;5053088;28;20414;-72
2023/05/31 06:03:47;;;;;;;4.47;2.90;;;;;;;43.66;18.88;98915.13;5052000;28;20044;-72
2023/05/31 06:06:13;;;;;;;6.22;2.72;;;;;;;43.69;18.86;98919.16;5051753;28;20041;-72
2023/05/31 06:08:38;;;;;;;5.72;2.55;;;;;;;43.75;18.95;98919.78;5052096;28;20029;-72
2023/05/31 06:11:04;;;;;;;6.13;2.23;;;;;;;43.71;18.83;98925.94;5051458;28;20481;-71
2023/05/31 06:13:30;;;;;;;9.63;2.10;;;;;;;43.75;18.76;98922.53;5052640;28;20112;-72
2023/05/31 06:15:55;;;;;;;6.27;2.37;;;;;;;43.73;18.72;98920.91;5052573;28;20110;-72
2023/05/31 06:18:21;;;;;;;4.77;2.53;;;;;;;43.68;18.36;98915.59;5053063;28;20025;-72
2023/05/31 06:20:46;;;;;;;2.63;2.00;;;;;;;43.71;18.41;98923.19;5053012;28;20025;-73
2023/05/31 06:23:12;;;;;;;4.73;2.03;;;;;;;43.69;18.42;98927.38;5052932;28;20025;-72
2023/05/31 06:25:37;;;;;;;13.27;2.30;;;;;;;43.66;18.66;98926.09;5051543;28;20029;-71
2023/05/31 06:28:03;;;;;;;5.43;2.07;;;;;;;43.63;18.45;98924.03;5052452;28;20048;-71
2023/05/31 06:30:29;;;;;;;6.20;1.90;;;;;;;43.61;18.14;98920.00;5052551;28;20025;-71
2023/05/31 06:32:55;;;;;;;5.87;1.90;;;;;;;43.57;17.73;98921.81;5052364;28;20107;-71
2023/05/31 06:35:21;;;;;;;5.00;1.90;;;;;;;43.51;17.29;98919.25;5052784;28;20039;-72
2023/05/31 06:37:47;;;;;;;4.63;2.03;;;;;;;43.44;17.58;98918.16;5050972;28;20037;-71
2023/05/31 06:40:12;;;;;;;9.17;2.20;;;;;;;43.40;17.74;98918.03;5051144;28;20055;-71
2023/05/31 06:42:38;;;;;;;3.60;2.00;;;;;;;43.30;17.41;98921.13;5052409;28;20033;-70
2023/05/31 06:45:04;;;;;;;5.90;2.00;;;;;;;43.24;17.04;98917.78;5052315;28;20404;-71
2023/05/31 06:47:30;;;;;;;3.50;1.83;;;;;;;43.15;16.52;98928.78;5052716;28;20032;-71
2023/05/31 06:49:55;;;;;;;8.63;1.80;;;;;;;43.05;16.77;98917.34;5052527;28;20037;-71
2023/05/31 06:52:21;;;;;;;2.90;1.70;;;;;;;43.00;17.20;98926.56;5052147;28;20028;-71
2023/05/31 06:54:46;;;;;;;6.47;2.07;;;;;;;42.90;16.77;98913.97;5052259;28;20087;-71
2023/05/31 06:57:12;;;;;;;4.13;1.87;;;;;;;42.83;17.50;98916.44;5050840;28;20048;-72
2023/05/31 06:59:37;;;;;;;11.13;5.77;;;;;;;42.79;17.42;98915.47;5052372;28;20029;-73
2023/05/31 07:02:03;;;;;;;8.43;3.00;;;;;;;42.67;17.45;98913.44;5052343;28;20492;-73
2023/05/31 07:04:29;;;;;;;4.90;3.20;;;;;;;42.56;17.77;98914.88;5052278;28;20025;-73
2023/05/31 07:06:55;;;;;;;9.73;3.03;;;;;;;42.43;17.01;98913.91;5052347;28;20039;-72
2023/05/31 07:09:21;;;;;;;7.53;3.17;;;;;;;42.29;17.07;98917.66;5050598;28;20045;-73
2023/05/31 07:11:46;;;;;;;6.80;3.33;;;;;;;42.16;17.17;98910.38;5052303;28;20044;-72
2023/05/31 07:14:12;;;;;;;12.27;4.30;;;;;;;42.12;17.40;98912.13;5050738;28;20033;-72
2023/05/31 07:16:37;;;;;;;7.65;3.88;;;;;;;42.05;17.97;98920.03;5052024;28;20021;-73
2023/05/31 07:19:03;;;;;;;9.03;3.80;;;;;;;41.94;17.71;98914.06;5052300;28;20029;-72
2023/05/31 07:21:29;;;;;;;6.40;3.47;;;;;;;41.80;17.96;98908.75;5051637;28;20060;-73
2023/05/31 07:23:55;;;;;;;5.83;3.10;;;;;;;41.66;17.74;98908.06;5054970;28;20098;-72
2023/05/31 07:26:20;;;;;;;9.52;4.22;;;;;;;41.62;18.32;98916.09;5038160;28;20463;-72
2023/05/31 07:28:46;;;;;;;10.10;3.38;;;;;;;41.51;18.63;98910.09;5056017;28;20033;-71
2023/05/31 07:31:17;;;;;;;11.75;3.63;;;;;;;41.40;19.14;98909.59;5056159;28;20021;-72
2023/05/31 07:33:43;;;;;;;8.00;4.70;;;;;;;41.26;18.60;98900.69;5056307;28;20492;-73
2023/05/31 07:36:08;;;;;;;10.25;4.50;;;;;;;41.09;19.25;98900.59;5038359;28;20035;-73
2023/05/31 07:38:34;;;;;;;6.93;3.88;;;;;;;41.00;19.50;98903.31;5056179;28;20436;-74
2023/05/31 07:40:59;;;;;;;7.55;3.60;;;;;;;40.91;19.12;98903.25;5056070;28;20060;-73
2023/05/31 07:43:25;;;;;;;10.15;4.10;;;;;;;40.78;19.72;98904.94;5055997;28;20036;-76
2023/05/31 07:45:51;;;;;;;10.07;4.10;;;;;;;40.64;19.66;98909.69;5054562;28;20037;-73
2023/05/31 07:48:17;;;;;;;10.82;4.05;;;;;;;40.47;19.56;98911.19;5054721;28;20029;-72
2023/05/31 07:50:43;;;;;;;11.90;3.67;;;;;;;40.33;20.07;98904.94;5055812;28;20033;-72
2023/05/31 07:53:08;;;;;;;5.90;3.53;;;;;;;40.18;19.90;98906.09;5055787;28;20472;-71
2023/05/31 07:55:35;;;;;;;14.25;3.83;;;;;;;40.10;20.34;98913.13;5055591;28;20051;-72
2023/05/31 07:58:00;;;;;;;13.33;3.77;;;;;;;39.99;20.81;98917.22;5055222;28;20079;-71
2023/05/31 08:00:26;;;;;;;8.13;3.53;;;;;;;39.88;21.12;98910.31;5054328;28;20032;-72
2023/05/31 08:02:51;;;;;;;12.05;4.07;;;;;;;39.59;20.42;98908.75;5054473;28;20037;-73
2023/05/31 08:05:17;;;;;;;14.00;4.63;;;;;;;39.49;20.85;98911.66;5055733;28;20458;-71
2023/05/31 08:07:42;;;;;;;9.88;3.85;;;;;;;39.25;20.76;98908.03;5055314;28;20029;-71
2023/05/31 08:10:09;;;;;;;5.97;4.28;;;;;;;39.17;21.05;98910.66;5037620;28;20025;-72
2023/05/31 08:12:34;;;;;;;7.80;4.20;;;;;;;38.98;21.31;98919.69;5053978;28;20021;-76
2023/05/31 08:15:00;;;;;;;8.52;3.95;;;;;;;38.61;21.33;98915.16;5053518;28;20423;-72
2023/05/31 08:17:26;;;;;;;8.85;3.95;;;;;;;38.55;21.48;98920.69;5055067;28;20043;-73
2023/05/31 08:19:51;;;;;;;6.35;3.50;;;;;;;38.58;21.94;98919.28;5037210;28;20534;-72
2023/05/31 08:22:17;;;;;;;8.65;3.50;;;;;;;38.60;21.84;98918.97;5037817;28;20029;-71
2023/05/31 08:24:43;;;;;;;4.63;2.97;;;;;;;38.35;21.15;98916.38;5053876;28;20039;-71
2023/05/31 08:27:08;;;;;;;7.15;3.38;;;;;;;38.21;21.76;98918.25;5055151;28;20118;-71
2023/05/31 08:29:34;;;;;;;6.13;3.50;;;;;;;38.13;21.65;98918.84;5053963;28;20614;-71
2023/05/31 08:32:00;;;;;;;6.28;3.33;;;;;;;38.06;21.73;98919.22;5053533;28;20025;-71
2023/05/31 08:34:25;;;;;;;6.53;3.70;;;;;;;37.94;20.78;98924.31;5053729;28;20032;-72
2023/05/31 08:36:51;;;;;;;8.93;3.65;;;;;;;37.79;21.51;98915.22;5037238;28;20025;-72
2023/05/31 08:39:17;;;;;;;8.10;4.43;;;;;;;37.70;21.41;98911.56;5036796;28;20389;-71
2023/05/31 08:42:02;;;;;;;6.63;4.00;;;;;;;37.58;22.29;98913.88;5020303;28;20087;-71
2023/05/31 08:44:28;;;;;;;9.80;3.70;;;;;;;37.41;22.09;98906.16;5054782;28;20076;-71
2023/05/31 08:46:53;;;;;;;6.10;3.72;;;;;;;37.23;21.95;98905.03;5053406;28;20112;-73
2023/05/31 08:49:19;;;;;;;8.45;3.70;;;;;;;36.92;22.09;98905.28;5036811;28;20103;-73
2023/05/31 08:51:47;;;;;;;7.38;3.50;;;;;;;36.64;21.94;98898.72;5053190;28;20036;-71
2023/05/31 08:54:13;;;;;;;5.60;3.45;;;;;;;36.37;21.94;98889.97;5053274;28;20029;-71
2023/05/31 08:56:38;;;;;;;7.40;3.22;;;;;;;35.86;20.73;98899.22;5036348;28;20064;-72
2023/05/31 08:59:07;;;;;;;4.63;2.95;;;;;;;35.40;21.92;98898.59;5036439;28;20041;-72
2023/05/31 09:01:33;;;;;;;5.22;3.22;;;;;;;35.03;22.25;98889.72;5053438;28;20396;-72
2023/05/31 09:03:58;;;;;;;6.90;3.75;;;;;;;34.66;22.70;98888.09;5036501;28;20028;-71
2023/05/31 09:06:24;;;;;;;8.07;3.33;;;;;;;34.38;22.77;98887.56;5036452;28;20060;-71
2023/05/31 09:08:50;;;;;;;7.40;3.22;;;;;;;34.10;22.22;98882.66;5052910;28;20036;-71
2023/05/31 09:11:15;;;;;;;8.48;3.08;;;;;;;33.82;22.79;98882.84;5053035;28;20451;-71
2023/05/31 09:13:41;;;;;;;5.03;2.65;;;;;;;33.51;23.46;98881.88;5054055;28;20033;-72
2023/05/31 09:16:06;;;;;;;10.10;3.25;;;;;;;33.13;23.38;98879.25;5054052;28;20374;-72
2023/05/31 09:18:39;;;;;;;7.90;2.95;;;;;;;33.05;24.47;98881.63;5036009;28;20099;-72
2023/05/31 09:21:11;;;;;;;6.85;3.13;;;;;;;33.00;24.48;98879.69;5036210;28;20037;-72
2023/05/31 09:23:36;;;;;;;7.50;3.15;;;;;;;32.97;25.10;98882.91;5052814;28;20150;-72
2023/05/31 09:26:05;;;;;;;4.47;2.90;;;;;;;32.77;24.71;98879.00;5052524;28;20501;-72
2023/05/31 09:28:31;;;;;;;7.13;3.03;;;;;;;32.57;25.67;98879.63;5052806;28;20029;-74
2023/05/31 09:31:06;;;;;;;4.25;3.00;;;;;;;32.45;25.80;98873.56;5052524;28;20488;-72
2023/05/31 09:33:42;;;;;;;8.27;3.30;;;;;;;32.41;26.11;98872.47;5035986;28;20029;-72
2023/05/31 09:36:08;;;;;;;3.95;2.72;;;;;;;32.39;26.00;98878.13;5035746;28;20040;-72
2023/05/31 09:38:34;;;;;;;5.35;3.13;;;;;;;32.26;26.15;98875.84;5035763;28;20566;-73
2023/05/31 09:41:17;;;;;;;5.63;2.92;;;;;;;32.30;26.25;98870.78;5019336;28;20086;-73
2023/05/31 09:43:44;;;;;;;6.25;3.20;;;;;;;32.43;26.40;98870.31;5051995;28;20503;-72
2023/05/31 09:46:14;;;;;;;6.35;3.15;;;;;;;32.61;26.22;98869.16;5051831;28;20040;-72
2023/05/31 09:48:39;;;;;;;7.55;3.63;;;;;;;32.70;25.46;98872.19;5036018;28;20041;-72
2023/05/31 09:51:08;;;;;;;8.15;3.22;;;;;;;32.69;26.30;98868.69;5053609;28;20043;-71
2023/05/31 09:53:41;;;;;;;7.10;3.38;;;;;;;32.62;25.32;98859.94;5052048;28;20375;-71
2023/05/31 09:56:11;;;;;;;8.55;3.58;;;;;;;32.57;25.58;98859.91;5035639;28;20039;-76
2023/05/31 09:58:36;;;;;;;11.63;3.22;;;;;;;32.47;25.06;98860.66;5051965;28;20083;-72
2023/05/31 10:01:03;;;;;;;8.43;3.25;;;;;;;32.35;25.11;98858.09;5053293;28;20033;-72
2023/05/31 10:03:28;;;;;;;5.88;3.10;;;;;;;32.36;25.26;98861.63;5052144;28;20028;-73
2023/05/31 10:05:54;;;;;;;4.72;2.83;;;;;;;32.25;25.70;98856.13;5034964;28;20412;-73
2023/05/31 10:08:21;;;;;;;6.28;3.40;;;;;;;32.40;25.91;98858.16;5035269;28;20044;-73
2023/05/31 10:10:47;;;;;;;;;;;;;;;32.43;25.86;98868.47;5019199;28;20029;-73
2023/05/31 10:13:12;;;;;;;10.32;3.20;;;;;;;32.48;25.82;98859.56;5052849;28;20371;-71
2023/05/31 10:15:38;;;;;;;6.88;2.83;;;;;;;32.51;26.11;98869.84;5035028;28;20059;-73
2023/05/31 10:18:10;;;;;;;8.40;3.08;;;;;;;32.35;25.57;98860.81;5035181;28;20576;-73
2023/05/31 10:20:40;;;;;;;8.48;3.17;;;;;;;31.97;25.96;98875.28;5051898;28;20069;-72
2023/05/31 10:23:08;;;;;;;6.60;2.90;;;;;;;31.71;26.30;98839.91;5051499;28;20036;-72
2023/05/31 10:25:38;;;;;;;7.57;2.92;;;;;;;31.78;26.57;98859.41;5035106;28;20511;-71
2023/05/31 10:28:10;;;;;;;7.22;2.78;;;;;;;31.51;26.66;98868.25;5018910;28;20045;-71
2023/05/31 10:30:36;;;;;;;4.72;2.80;;;;;;;31.65;26.88;98852.53;5051561;28;20025;-71
2023/05/31 10:33:07;;;;;;;5.72;2.90;;;;;;;31.78;26.94;98847.81;5051297;28;20060;-71
2023/05/31 10:35:33;;;;;;;4.82;3.00;;;;;;;31.83;27.12;98851.38;5050966;28;20519;-71
2023/05/31 10:37:59;;;;;;;4.35;2.78;;;;;;;31.91;27.46;98853.63;5034246;28;20041;-71
2023/05/31 10:40:36;;;;;;;6.43;2.67;;;;;;;31.91;27.28;98842.84;5034756;28;20032;-74
2023/05/31 10:43:16;;;;;;;5.27;2.90;;;;;;;31.89;27.55;98844.16;5051673;28;20040;-71
2023/05/31 10:45:50;;;;;;;6.15;2.90;;;;;;;31.89;27.67;98836.84;5052493;28;20425;-71
2023/05/31 10:48:40;;;;;;;5.65;2.88;;;;;;;31.79;27.61;98852.97;5050872;28;20074;-72
2023/05/31 10:51:06;;;;;;;4.80;2.80;;;;;;;31.74;27.69;98842.91;5052407;28;20033;-72
2023/05/31 10:53:39;;;;;;;3.65;2.55;;;;;;;31.67;28.18;98836.88;5051282;28;20029;-72
2023/05/31 10:56:06;;;;;;;5.18;2.83;;;;;;;31.64;28.30;98833.88;5050919;28;20108;-70
2023/05/31 10:58:38;;;;;;;6.73;3.03;;;;;;;31.58;28.09;98829.50;5050509;28;20413;-71
2023/05/31 11:01:05;;;;;;;12.63;3.63;;;;;;;31.43;27.79;98833.63;5050912;28;20033;-71
2023/05/31 11:03:35;;;;;;;11.20;3.65;;;;;;;31.09;28.31;98822.97;5052095;28;20040;-71
2023/05/31 11:06:08;;;;;;;10.40;3.58;;;;;;;30.98;28.38;98822.00;5034859;28;20048;-71
2023/05/31 11:08:34;;;;;;;7.75;3.50;;;;;;;31.05;28.73;98818.31;5035056;28;20522;-71
2023/05/31 11:11:28;;;;;;;10.23;3.67;;;;;;;31.07;28.89;98822.38;5034184;28;20037;-70
2023/05/31 11:14:06;;;;;;;8.88;3.35;;;;;;;31.05;29.06;98811.03;5051989;28;20044;-72
2023/05/31 11:17:05;;;;;;;8.05;3.60;;;;;;;31.00;28.85;98816.38;5050923;28;20500;-71
2023/05/31 11:19:34;;;;;;;8.60;3.55;;;;;;;30.95;29.11;98803.59;5048464;28;20045;-71
2023/05/31 11:22:07;;;;;;;7.43;3.50;;;;;;;30.91;29.40;98815.13;5033858;28;20493;-70
2023/05/31 11:24:52;;;;;;;7.85;2.70;;;;;;;30.79;28.92;98801.75;5051815;28;20108;-71
2023/05/31 11:27:21;;;;;;;4.65;2.97;;;;;;;30.71;29.30;98811.09;5050473;28;20569;-70
2023/05/31 11:29:53;;;;;;;9.45;3.50;;;;;;;30.65;29.56;98818.28;5050722;28;20095;-71
2023/05/31 11:32:34;;;;;;;6.13;3.00;;;;;;;30.39;29.48;98797.38;5051760;28;20036;-71
2023/05/31 11:35:02;;;;;;;7.55;3.30;;;;;;;29.95;29.94;98797.97;5050957;28;20541;-72